createdAt,value
2019-06-26T00:01:05.426Z,6.77
2019-06-26T00:02:37.599Z,6.13
2019-06-26T00:04:09.856Z,6.30
2019-06-26T00:05:41.958Z,7.23
2019-06-26T00:07:14.075Z,7.60
2019-06-26T00:08:46.336Z,6.77
2019-06-26T00:10:19.061Z,7.40
2019-06-26T00:11:51.292Z,7.10
2019-06-26T00:13:26.588Z,10.67
2019-06-26T00:14:57.706Z,7.30
2019-06-26T00:16:29.985Z,6.50
2019-06-26T00:18:02.183Z,7.63
2019-06-26T00:19:34.401Z,6.57
2019-06-26T00:21:06.520Z,8.37
2019-06-26T00:22:38.726Z,8.50
2019-06-26T00:24:10.926Z,7.53
2019-06-26T00:25:43.057Z,7.43
2019-06-26T00:27:15.215Z,6.77
2019-06-26T00:28:47.361Z,7.70
2019-06-26T00:30:19.574Z,7.10
2019-06-26T00:31:51.817Z,6.90
2019-06-26T00:33:24.100Z,7.47
2019-06-26T00:34:56.226Z,7.93
2019-06-26T00:36:28.451Z,8.47
2019-06-26T00:38:00.676Z,8.83
2019-06-26T00:39:32.982Z,7.07
2019-06-26T00:41:05.154Z,7.20
2019-06-26T00:42:37.261Z,7.33
2019-06-26T00:44:09.383Z,7.40
2019-06-26T00:45:41.515Z,7.80
2019-06-26T00:47:13.636Z,8.37
2019-06-26T00:48:45.781Z,7.43
2019-06-26T00:50:18.457Z,8.80
2019-06-26T00:51:50.709Z,7.73
2019-06-26T00:53:22.813Z,7.40
2019-06-26T00:54:54.938Z,7.73
2019-06-26T00:56:27.189Z,7.50
2019-06-26T00:57:59.417Z,7.63
2019-06-26T00:59:31.484Z,7.30
2019-06-26T01:01:03.580Z,7.67
2019-06-26T01:02:35.922Z,10.97
2019-06-26T01:04:13.044Z,6.57
2019-06-26T01:05:45.264Z,7.20
2019-06-26T01:07:17.554Z,7.70
2019-06-26T01:08:49.769Z,8.27
2019-06-26T01:10:22.017Z,8.20
2019-06-26T01:11:54.233Z,7.40
2019-06-26T01:13:26.500Z,7.43
2019-06-26T01:14:58.719Z,8.87
2019-06-26T01:16:30.945Z,7.50
2019-06-26T01:18:03.210Z,8.03
2019-06-26T01:19:35.474Z,7.93
2019-06-26T01:21:07.827Z,7.77
2019-06-26T01:22:40.078Z,8.20
2019-06-26T01:24:12.185Z,12.23
2019-06-26T01:25:44.340Z,8.13
2019-06-26T01:27:16.577Z,7.57
2019-06-26T01:28:48.819Z,7.57
2019-06-26T01:30:21.072Z,7.47
2019-06-26T01:31:53.309Z,9.10
2019-06-26T01:33:25.603Z,7.57
2019-06-26T01:34:57.753Z,7.57
2019-06-26T01:36:29.988Z,7.23
2019-06-26T01:38:02.118Z,6.63
2019-06-26T01:39:34.407Z,7.77
2019-06-26T01:41:06.637Z,7.50
2019-06-26T01:42:38.881Z,9.77
2019-06-26T01:44:15.189Z,6.93
2019-06-26T01:45:45.134Z,10.30
2019-06-26T01:47:17.413Z,9.23
2019-06-26T01:48:49.597Z,9.10
2019-06-26T01:50:21.841Z,7.10
2019-06-26T01:51:54.100Z,6.83
2019-06-26T01:53:26.240Z,7.53
2019-06-26T01:54:58.489Z,6.63
2019-06-26T01:56:30.628Z,8.43
2019-06-26T01:58:02.859Z,8.77
2019-06-26T01:59:35.133Z,7.50
2019-06-26T02:01:07.402Z,7.33
2019-06-26T02:02:39.666Z,7.13
2019-06-26T02:04:15.426Z,7.00
2019-06-26T02:05:46.114Z,7.77
2019-06-26T02:07:20.031Z,7.27
2019-06-26T02:08:52.246Z,8.33
2019-06-26T02:10:24.501Z,6.83
2019-06-26T02:11:59.666Z,7.67
2019-06-26T02:13:30.921Z,8.20
2019-06-26T02:15:03.369Z,6.77
2019-06-26T02:16:35.663Z,6.57
2019-06-26T02:18:27.379Z,6.83
2019-06-26T02:19:59.520Z,8.50
2019-06-26T02:21:31.794Z,7.53
2019-06-26T02:23:04.029Z,7.00
2019-06-26T02:24:36.136Z,7.70
2019-06-26T02:26:08.438Z,7.13
2019-06-26T02:27:40.569Z,6.83
2019-06-26T02:29:12.779Z,8.37
2019-06-26T02:30:45.015Z,6.60
2019-06-26T02:32:17.134Z,6.50
2019-06-26T02:33:49.417Z,7.13
2019-06-26T02:35:21.706Z,6.93
2019-06-26T02:36:53.981Z,8.03
2019-06-26T02:38:26.237Z,7.23
2019-06-26T02:39:58.356Z,7.37
2019-06-26T02:41:30.488Z,6.70
2019-06-26T02:43:06.687Z,7.03
2019-06-26T02:44:52.153Z,9.23
2019-06-26T02:46:11.085Z,6.87
2019-06-26T02:47:43.333Z,6.90
2019-06-26T02:49:15.647Z,7.00
2019-06-26T02:50:47.812Z,9.80
2019-06-26T02:52:20.147Z,8.57
2019-06-26T02:53:52.274Z,7.10
2019-06-26T02:55:24.538Z,7.70
2019-06-26T02:56:56.665Z,7.00
2019-06-26T02:58:28.792Z,7.93
2019-06-26T03:00:01.109Z,8.27
2019-06-26T03:01:33.403Z,7.60
2019-06-26T03:03:05.660Z,6.87
2019-06-26T03:04:37.930Z,11.30
2019-06-26T03:06:10.155Z,9.40
2019-06-26T03:07:42.361Z,7.97
2019-06-26T03:09:14.493Z,7.80
2019-06-26T03:10:46.627Z,9.10
2019-06-26T03:12:19.001Z,8.17
2019-06-26T03:13:51.260Z,10.77
2019-06-26T03:15:23.382Z,8.20
2019-06-26T03:16:55.743Z,8.73
2019-06-26T03:18:27.979Z,9.37
2019-06-26T03:20:00.263Z,8.17
2019-06-26T03:21:32.438Z,9.60
2019-06-26T03:23:04.754Z,8.63
2019-06-26T03:24:36.982Z,8.60
2019-06-26T03:26:09.282Z,10.00
2019-06-26T03:27:41.388Z,11.47
2019-06-26T03:29:13.520Z,8.43
2019-06-26T03:30:45.665Z,8.20
2019-06-26T03:32:17.908Z,7.60
2019-06-26T03:33:50.164Z,8.50
2019-06-26T03:35:22.552Z,8.50
2019-06-26T03:36:54.745Z,9.10
2019-06-26T03:38:27.035Z,8.70
2019-06-26T03:39:59.272Z,8.57
2019-06-26T03:41:31.533Z,9.17
2019-06-26T03:43:03.798Z,9.10
2019-06-26T03:44:35.997Z,8.23
2019-06-26T03:46:08.194Z,8.40
2019-06-26T03:47:40.552Z,8.27
2019-06-26T03:49:12.860Z,8.10
2019-06-26T03:50:44.959Z,8.27
2019-06-26T03:52:17.067Z,8.93
2019-06-26T03:53:49.318Z,9.30
2019-06-26T03:55:21.447Z,8.23
2019-06-26T03:56:53.739Z,8.00
2019-06-26T03:58:26.008Z,10.17
2019-06-26T03:59:58.233Z,8.90
2019-06-26T04:01:30.322Z,7.77
2019-06-26T04:03:02.574Z,7.97
2019-06-26T04:04:34.671Z,8.00
2019-06-26T04:06:06.786Z,9.60
2019-06-26T04:07:38.973Z,9.17
2019-06-26T04:09:11.247Z,8.77
2019-06-26T04:10:43.697Z,9.90
2019-06-26T04:12:16.112Z,8.37
2019-06-26T04:13:48.217Z,11.87
2019-06-26T04:15:20.316Z,8.67
2019-06-26T04:16:52.541Z,7.77
2019-06-26T04:18:24.619Z,9.97
2019-06-26T04:19:56.731Z,8.20
2019-06-26T04:21:28.867Z,8.43
2019-06-26T04:23:01.095Z,8.33
2019-06-26T04:24:33.334Z,13.00
2019-06-26T04:26:05.680Z,9.70
2019-06-26T04:27:37.991Z,9.03
2019-06-26T04:29:10.209Z,7.53
2019-06-26T04:30:42.275Z,7.57
2019-06-26T04:32:14.356Z,8.83
2019-06-26T04:33:46.514Z,7.70
2019-06-26T04:35:18.795Z,9.03
2019-06-26T04:36:51.077Z,8.53
2019-06-26T04:38:23.277Z,8.47
2019-06-26T04:39:55.530Z,8.10
2019-06-26T04:41:27.629Z,9.40
2019-06-26T04:42:59.880Z,8.43
2019-06-26T04:44:32.014Z,10.23
2019-06-26T04:46:04.241Z,8.40
2019-06-26T04:47:36.477Z,7.53
2019-06-26T04:49:08.583Z,8.87
2019-06-26T04:50:40.784Z,8.77
2019-06-26T04:52:13.015Z,8.83
2019-06-26T04:53:45.301Z,9.00
2019-06-26T04:55:17.431Z,8.03
2019-06-26T04:56:49.495Z,8.07
2019-06-26T04:58:21.755Z,7.43
2019-06-26T04:59:53.873Z,7.73
2019-06-26T05:01:26.038Z,7.57
2019-06-26T05:02:58.243Z,10.73
2019-06-26T05:04:30.465Z,9.10
2019-06-26T05:06:02.696Z,7.50
2019-06-26T05:07:35.230Z,8.27
2019-06-26T05:09:07.565Z,8.10
2019-06-26T05:10:39.788Z,8.10
2019-06-26T05:12:11.918Z,7.97
2019-06-26T05:14:03.497Z,7.90
2019-06-26T05:15:35.592Z,13.67
2019-06-26T05:17:07.835Z,10.77
2019-06-26T05:18:40.103Z,10.77
2019-06-26T05:20:12.874Z,9.17
2019-06-26T05:21:45.093Z,9.10
2019-06-26T05:23:17.202Z,7.30
2019-06-26T05:24:49.267Z,9.70
2019-06-26T05:26:21.369Z,7.90
2019-06-26T05:27:53.456Z,8.20
2019-06-26T05:29:25.785Z,10.97
2019-06-26T05:30:58.049Z,11.50
2019-06-26T05:32:30.161Z,8.03
2019-06-26T05:34:02.377Z,8.23
2019-06-26T05:35:35.318Z,8.37
2019-06-26T05:37:07.680Z,12.10
2019-06-26T05:38:39.954Z,10.67
2019-06-26T05:40:13.135Z,8.73
2019-06-26T05:41:45.201Z,9.23
2019-06-26T05:43:17.385Z,8.67
2019-06-26T05:44:49.463Z,11.90
2019-06-26T05:46:30.968Z,10.07
2019-06-26T05:47:55.715Z,10.70
2019-06-26T05:49:27.954Z,9.83
2019-06-26T05:51:00.071Z,8.87
2019-06-26T05:52:32.310Z,11.43
2019-06-26T05:54:04.466Z,7.30
2019-06-26T05:55:36.732Z,8.73
2019-06-26T05:57:08.827Z,7.73
2019-06-26T05:58:40.975Z,9.77
2019-06-26T06:00:13.400Z,8.70
2019-06-26T06:01:45.588Z,7.33
2019-06-26T06:03:17.655Z,10.37
2019-06-26T06:04:49.746Z,8.30
2019-06-26T06:06:22.000Z,7.63
2019-06-26T06:07:54.275Z,7.93
2019-06-26T06:09:26.420Z,7.87
2019-06-26T06:10:58.624Z,9.70
2019-06-26T06:12:30.904Z,9.87
2019-06-26T06:14:03.158Z,8.10
2019-06-26T06:15:35.338Z,7.37
2019-06-26T06:17:07.580Z,10.17
2019-06-26T06:18:39.795Z,9.37
2019-06-26T06:20:13.597Z,9.43
2019-06-26T06:21:45.915Z,8.87
2019-06-26T06:23:18.058Z,9.27
2019-06-26T06:24:50.242Z,8.87
2019-06-26T06:26:22.369Z,9.70
2019-06-26T06:27:54.516Z,8.30
2019-06-26T06:29:26.748Z,7.80
2019-06-26T06:30:58.806Z,9.47
2019-06-26T06:32:30.887Z,8.40
2019-06-26T06:34:03.234Z,8.13
2019-06-26T06:35:35.548Z,9.83
2019-06-26T06:37:07.754Z,10.43
2019-06-26T06:38:39.881Z,7.87
2019-06-26T06:40:12.561Z,10.13
2019-06-26T06:41:44.669Z,10.50
2019-06-26T06:43:17.207Z,9.30
2019-06-26T06:44:49.451Z,10.93
2019-06-26T06:46:21.722Z,10.47
2019-06-26T06:47:53.781Z,10.20
2019-06-26T06:49:26.053Z,8.63
2019-06-26T06:50:58.181Z,11.43
2019-06-26T06:52:30.379Z,11.13
2019-06-26T06:54:02.772Z,9.70
2019-06-26T06:55:34.884Z,8.40
2019-06-26T06:57:06.989Z,10.80
2019-06-26T06:58:39.054Z,8.83
2019-06-26T07:00:12.871Z,9.30
2019-06-26T07:01:45.152Z,8.70
2019-06-26T07:03:17.407Z,10.80
2019-06-26T07:04:49.532Z,8.80
2019-06-26T07:06:21.752Z,8.90
2019-06-26T07:07:53.820Z,8.53
2019-06-26T07:09:26.073Z,11.50
2019-06-26T07:10:58.167Z,8.40
2019-06-26T07:12:30.405Z,8.20
2019-06-26T07:14:02.757Z,9.00
2019-06-26T07:15:35.010Z,8.40
2019-06-26T07:17:19.950Z,8.53
2019-06-26T07:18:41.232Z,9.87
2019-06-26T07:20:15.072Z,8.87
2019-06-26T07:21:47.285Z,14.20
2019-06-26T07:23:19.389Z,10.90
2019-06-26T07:24:51.646Z,9.37
2019-06-26T07:26:23.793Z,14.20
2019-06-26T07:27:56.090Z,10.87
2019-06-26T07:29:28.377Z,8.73
2019-06-26T07:31:00.487Z,10.83
2019-06-26T07:32:32.599Z,9.03
2019-06-26T07:34:04.718Z,12.43
2019-06-26T07:35:36.956Z,8.60
2019-06-26T07:37:09.109Z,9.93
2019-06-26T07:38:41.200Z,9.73
2019-06-26T07:40:13.948Z,10.97
2019-06-26T07:41:46.059Z,12.03
2019-06-26T07:43:18.371Z,10.10
2019-06-26T07:44:50.505Z,12.13
2019-06-26T07:46:22.835Z,8.93
2019-06-26T07:47:55.041Z,8.77
2019-06-26T07:49:27.256Z,8.63
2019-06-26T07:50:59.491Z,10.80
2019-06-26T07:52:31.734Z,11.03
2019-06-26T07:54:03.878Z,13.40
2019-06-26T07:55:40.288Z,8.43
2019-06-26T07:57:10.395Z,8.43
2019-06-26T07:58:42.474Z,13.50
2019-06-26T08:00:14.904Z,11.40
2019-06-26T08:01:47.173Z,12.40
2019-06-26T08:03:19.384Z,9.70
2019-06-26T08:04:51.517Z,8.80
2019-06-26T08:06:23.721Z,8.10
2019-06-26T08:07:55.859Z,10.17
2019-06-26T08:09:28.180Z,8.03
2019-06-26T08:12:41.036Z,8.13
2019-06-26T08:14:13.317Z,9.33
2019-06-26T08:15:45.428Z,10.33
2019-06-26T08:17:17.500Z,9.30
2019-06-26T08:18:49.697Z,8.00
2019-06-26T08:20:21.989Z,7.83
2019-06-26T08:21:54.079Z,9.70
2019-06-26T08:23:26.163Z,9.83
2019-06-26T08:24:58.299Z,9.30
2019-06-26T08:26:30.428Z,9.87
2019-06-26T08:28:02.528Z,10.30
2019-06-26T08:29:34.642Z,7.57
2019-06-26T08:31:06.764Z,7.87
2019-06-26T08:32:39.015Z,10.53
2019-06-26T08:34:11.236Z,8.83
2019-06-26T08:35:43.499Z,7.23
2019-06-26T08:37:15.881Z,8.50
2019-06-26T08:38:47.982Z,8.20
2019-06-26T08:40:20.117Z,8.73
2019-06-26T08:41:52.397Z,7.97
2019-06-26T08:43:24.631Z,8.40
2019-06-26T08:44:56.872Z,8.63
2019-06-26T08:46:29.135Z,12.23
2019-06-26T08:48:16.763Z,10.00
2019-06-26T08:49:35.571Z,7.63
2019-06-26T08:51:07.821Z,10.97
2019-06-26T08:52:40.082Z,10.00
2019-06-26T08:54:12.170Z,8.03
2019-06-26T08:55:44.464Z,10.07
2019-06-26T08:57:16.548Z,8.60
2019-06-26T08:58:48.775Z,8.20
2019-06-26T09:00:21.216Z,8.53
2019-06-26T09:01:53.566Z,8.33
2019-06-26T09:03:25.647Z,11.13
2019-06-26T09:04:57.888Z,8.63
2019-06-26T09:06:30.145Z,12.30
2019-06-26T09:08:02.609Z,9.67
2019-06-26T09:09:35.022Z,8.17
2019-06-26T09:11:07.213Z,8.43
2019-06-26T09:12:39.463Z,8.53
2019-06-26T09:14:11.650Z,7.43
2019-06-26T09:15:43.761Z,9.10
2019-06-26T09:17:15.955Z,8.30
2019-06-26T09:18:48.235Z,9.33
2019-06-26T09:20:31.196Z,10.57
2019-06-26T09:22:03.306Z,11.87
2019-06-26T09:23:35.401Z,10.37
2019-06-26T09:25:20.918Z,8.93
2019-06-26T09:26:41.911Z,7.33
2019-06-26T09:28:14.138Z,8.87
2019-06-26T09:29:46.435Z,11.45
2019-06-26T09:31:18.701Z,7.73
2019-06-26T09:32:50.818Z,9.63
2019-06-26T09:34:22.949Z,8.13
2019-06-26T09:35:55.068Z,7.80
2019-06-26T09:37:27.189Z,9.30
2019-06-26T09:38:59.431Z,11.87
2019-06-26T09:40:32.141Z,8.43
2019-06-26T09:42:04.633Z,10.60
2019-06-26T09:43:36.875Z,9.78
2019-06-26T09:45:09.067Z,8.17
2019-06-26T09:46:41.331Z,12.80
2019-06-26T09:48:13.426Z,13.10
2019-06-26T09:49:45.709Z,9.43
2019-06-26T09:51:17.810Z,7.92
2019-06-26T09:52:50.065Z,11.27
2019-06-26T09:54:22.406Z,11.93
2019-06-26T09:55:54.538Z,8.90
2019-06-26T09:57:26.730Z,10.45
2019-06-26T09:58:58.977Z,10.70
2019-06-26T10:00:31.658Z,10.05
2019-06-26T10:02:03.845Z,8.37
2019-06-26T10:03:36.091Z,8.73
2019-06-26T10:05:08.481Z,10.65
2019-06-26T10:06:40.759Z,8.05
2019-06-26T10:08:13.001Z,11.57
2019-06-26T10:09:45.251Z,12.37
2019-06-26T10:11:17.507Z,11.85
2019-06-26T10:12:49.572Z,11.48
2019-06-26T10:14:21.726Z,9.28
2019-06-26T10:15:54.061Z,9.70
2019-06-26T10:17:26.149Z,9.50
2019-06-26T10:19:09.463Z,9.23
2019-06-26T10:20:32.822Z,9.40
2019-06-26T10:22:04.919Z,10.93
2019-06-26T10:23:37.129Z,11.97
2019-06-26T10:25:11.443Z,7.40
2019-06-26T10:26:43.508Z,7.58
2019-06-26T10:28:15.744Z,8.30
2019-06-26T10:29:47.929Z,10.25
2019-06-26T10:31:20.171Z,10.20
2019-06-26T10:32:52.454Z,8.78
2019-06-26T10:34:24.655Z,9.35
2019-06-26T10:35:56.736Z,8.40
2019-06-26T10:37:28.828Z,7.75
2019-06-26T10:39:00.936Z,7.53
2019-06-26T10:40:33.170Z,10.72
2019-06-26T10:42:05.393Z,8.55
2019-06-26T10:43:37.632Z,8.70
2019-06-26T10:45:10.123Z,8.13
2019-06-26T10:46:42.268Z,7.75
2019-06-26T10:48:14.375Z,11.55
2019-06-26T10:49:46.491Z,8.48
2019-06-26T10:51:18.740Z,8.43
2019-06-26T10:52:50.875Z,11.55
2019-06-26T10:54:22.961Z,11.80
2019-06-26T10:55:55.041Z,11.45
2019-06-26T10:57:27.445Z,9.28
2019-06-26T10:58:59.625Z,9.75
2019-06-26T11:00:32.017Z,10.08
2019-06-26T11:02:04.334Z,10.78
2019-06-26T11:03:36.416Z,10.13
2019-06-26T11:05:09.044Z,9.28
2019-06-26T11:06:41.170Z,9.93
2019-06-26T11:08:13.302Z,10.75
2019-06-26T11:09:45.542Z,8.25
2019-06-26T11:11:17.626Z,8.03
2019-06-26T11:12:49.758Z,12.15
2019-06-26T11:14:21.934Z,8.25
2019-06-26T11:15:54.181Z,10.40
2019-06-26T11:17:26.284Z,9.08
2019-06-26T11:18:58.569Z,7.85
2019-06-26T11:20:30.841Z,8.83
2019-06-26T11:22:03.329Z,10.43
2019-06-26T11:23:35.803Z,9.13
2019-06-26T11:25:08.216Z,8.45
2019-06-26T11:26:40.506Z,8.18
2019-06-26T11:28:12.865Z,9.43
2019-06-26T11:29:45.122Z,7.90
2019-06-26T11:31:17.237Z,10.93
2019-06-26T11:32:49.556Z,8.28
2019-06-26T11:34:21.824Z,10.32
2019-06-26T11:35:53.909Z,10.40
2019-06-26T11:37:26.180Z,10.18
2019-06-26T11:38:58.407Z,8.10
2019-06-26T11:40:30.508Z,10.35
2019-06-26T11:42:02.954Z,9.15
2019-06-26T11:43:35.096Z,8.05
2019-06-26T11:45:08.192Z,9.78
2019-06-26T11:46:40.374Z,10.25
2019-06-26T11:48:12.483Z,13.00
2019-06-26T11:49:59.013Z,8.88
2019-06-26T11:51:18.744Z,11.03
2019-06-26T11:52:50.829Z,8.83
2019-06-26T11:54:23.111Z,9.05
2019-06-26T11:55:55.237Z,9.68
2019-06-26T11:57:27.478Z,13.53
2019-06-26T11:58:59.578Z,12.18
2019-06-26T12:00:31.810Z,10.15
2019-06-26T12:02:04.005Z,12.68
2019-06-26T12:03:36.137Z,9.93
2019-06-26T12:05:08.773Z,9.55
2019-06-26T12:06:40.872Z,10.40
2019-06-26T12:08:13.038Z,12.37
2019-06-26T12:09:45.303Z,9.45
2019-06-26T12:11:17.427Z,9.70
2019-06-26T12:12:49.625Z,9.60
2019-06-26T12:14:21.767Z,10.10
2019-06-26T12:15:54.019Z,11.53
2019-06-26T12:17:26.185Z,10.47
2019-06-26T12:18:58.355Z,11.68
2019-06-26T12:20:30.472Z,12.55
2019-06-26T12:22:02.736Z,11.17
2019-06-26T12:23:35.067Z,8.87
2019-06-26T12:25:07.522Z,9.13
2019-06-26T12:26:39.689Z,9.73
2019-06-26T12:28:11.858Z,9.67
2019-06-26T12:29:43.969Z,9.33
2019-06-26T12:31:16.216Z,10.55
2019-06-26T12:33:02.123Z,11.50
2019-06-26T12:34:22.566Z,11.47
2019-06-26T12:35:54.843Z,13.53
2019-06-26T12:37:36.942Z,11.33
2019-06-26T12:39:00.958Z,12.80
2019-06-26T12:40:33.071Z,11.90
2019-06-26T12:42:05.350Z,10.10
2019-06-26T12:43:37.619Z,12.57
2019-06-26T12:45:11.341Z,8.80
2019-06-26T12:46:43.576Z,10.47
2019-06-26T12:48:16.483Z,11.10
2019-06-26T12:49:49.033Z,12.23
2019-06-26T12:51:21.118Z,13.07
2019-06-26T12:52:53.361Z,10.00
2019-06-26T12:54:25.474Z,13.27
2019-06-26T12:55:57.834Z,13.40
2019-06-26T12:57:29.980Z,11.53
2019-06-26T12:59:02.118Z,12.57
2019-06-26T13:00:34.324Z,14.27
2019-06-26T13:02:07.696Z,10.67
2019-06-26T13:03:39.919Z,10.50
2019-06-26T13:05:13.262Z,11.83
2019-06-26T13:06:45.581Z,12.57
2019-06-26T13:08:17.669Z,10.70
2019-06-26T13:09:49.739Z,10.53
2019-06-26T13:11:21.987Z,10.67
2019-06-26T13:12:54.179Z,11.43
2019-06-26T13:14:26.307Z,10.10
2019-06-26T13:15:58.445Z,9.80
2019-06-26T13:17:30.702Z,11.43
2019-06-26T13:19:02.936Z,9.70
2019-06-26T13:20:51.237Z,10.07
2019-06-26T13:22:09.123Z,10.07
2019-06-26T13:23:41.456Z,10.13
2019-06-26T13:25:15.966Z,10.83
2019-06-26T13:26:48.081Z,10.73
2019-06-26T13:28:20.305Z,10.27
2019-06-26T13:29:52.497Z,9.83
2019-06-26T13:31:24.648Z,9.57
2019-06-26T13:32:56.756Z,10.60
2019-06-26T13:34:28.851Z,13.67
2019-06-26T13:36:00.948Z,9.40
2019-06-26T13:37:33.224Z,10.63
2019-06-26T13:39:05.700Z,9.47
2019-06-26T13:40:40.788Z,14.73
2019-06-26T13:42:11.967Z,21.27
2019-06-26T13:43:44.079Z,13.57
2019-06-26T13:45:16.195Z,11.67
2019-06-26T13:46:48.496Z,12.27
2019-06-26T13:48:20.666Z,10.27
2019-06-26T13:49:52.787Z,13.97
2019-06-26T13:51:24.946Z,10.47
2019-06-26T13:52:57.191Z,9.97
2019-06-26T13:54:29.463Z,15.30
2019-06-26T13:56:01.973Z,10.53
2019-06-26T13:57:34.120Z,10.23
2019-06-26T13:59:07.496Z,11.37
2019-06-26T14:00:39.806Z,9.73
2019-06-26T14:02:12.013Z,11.23
2019-06-26T14:03:44.184Z,12.10
2019-06-26T14:05:16.521Z,12.47
2019-06-26T14:06:48.596Z,11.27
2019-06-26T14:08:20.683Z,14.17
2019-06-26T14:09:52.920Z,9.37
2019-06-26T14:11:25.082Z,11.90
2019-06-26T14:12:57.260Z,8.83
2019-06-26T14:14:52.637Z,10.13
2019-06-26T14:16:04.678Z,8.90
2019-06-26T14:17:37.002Z,10.50
2019-06-26T14:19:09.098Z,10.53
2019-06-26T14:20:41.223Z,9.63
2019-06-26T14:22:13.348Z,10.40
2019-06-26T14:23:45.469Z,10.20
2019-06-26T14:25:17.656Z,11.13
2019-06-26T14:26:49.807Z,7.87
2019-06-26T14:28:21.886Z,10.07
2019-06-26T14:29:54.141Z,12.03
2019-06-26T14:31:26.350Z,9.50
2019-06-26T14:32:58.517Z,9.47
2019-06-26T14:34:30.673Z,11.10
2019-06-26T14:36:02.836Z,8.80
2019-06-26T14:37:34.958Z,14.67
2019-06-26T14:39:07.277Z,11.47
2019-06-26T14:40:39.524Z,12.63
2019-06-26T14:42:11.786Z,9.43
2019-06-26T14:43:44.017Z,12.60
2019-06-26T14:45:16.247Z,12.73
2019-06-26T14:46:48.352Z,9.47
2019-06-26T14:48:20.589Z,11.47
2019-06-26T14:49:52.868Z,13.40
2019-06-26T14:51:37.801Z,12.00
2019-06-26T14:52:59.144Z,8.97
2019-06-26T14:54:31.227Z,11.83
2019-06-26T14:56:03.832Z,8.50
2019-06-26T14:57:36.101Z,12.30
2019-06-26T14:59:08.206Z,11.47
2019-06-26T15:00:40.312Z,9.63
2019-06-26T15:02:12.420Z,12.47
2019-06-26T15:03:44.644Z,12.97
2019-06-26T15:05:16.840Z,11.30
2019-06-26T15:06:48.949Z,10.97
2019-06-26T15:08:21.160Z,11.03
2019-06-26T15:09:53.364Z,10.23
2019-06-26T15:11:25.459Z,11.33
2019-06-26T15:12:57.681Z,12.53
2019-06-26T15:14:29.899Z,12.50
2019-06-26T15:16:02.100Z,11.33
2019-06-26T15:17:34.205Z,9.47
2019-06-26T15:19:06.454Z,14.00
2019-06-26T15:20:38.904Z,9.43
2019-06-26T15:22:11.033Z,11.57
2019-06-26T15:23:43.130Z,10.20
2019-06-26T15:25:16.240Z,10.17
2019-06-26T15:26:48.379Z,14.87
2019-06-26T15:28:20.500Z,8.53
2019-06-26T15:29:52.723Z,11.57
2019-06-26T15:31:24.833Z,11.40
2019-06-26T15:32:57.073Z,10.83
2019-06-26T15:34:29.186Z,11.97
2019-06-26T15:36:01.457Z,9.17
2019-06-26T15:37:33.788Z,11.27
2019-06-26T15:39:06.684Z,9.80
2019-06-26T15:40:38.947Z,9.87
2019-06-26T15:42:11.179Z,10.47
2019-06-26T15:43:43.418Z,13.20
2019-06-26T15:45:15.911Z,17.63
2019-06-26T15:46:48.102Z,11.87
2019-06-26T15:48:20.460Z,12.23
2019-06-26T15:49:52.547Z,9.43
2019-06-26T15:51:24.840Z,9.37
2019-06-26T15:52:56.927Z,11.00
2019-06-26T15:54:29.038Z,11.57
2019-06-26T15:56:01.141Z,9.53
2019-06-26T15:57:33.393Z,11.50
2019-06-26T15:59:05.599Z,10.07
2019-06-26T16:00:37.707Z,11.33
2019-06-26T16:02:10.022Z,9.43
2019-06-26T16:03:42.112Z,11.20
2019-06-26T16:05:14.857Z,12.87
2019-06-26T16:06:47.660Z,9.40
2019-06-26T16:08:19.860Z,9.10
2019-06-26T16:09:51.919Z,10.70
2019-06-26T16:11:24.175Z,11.30
2019-06-26T16:12:56.374Z,12.00
2019-06-26T16:14:28.531Z,13.57
2019-06-26T16:16:00.808Z,10.60
2019-06-26T16:17:40.516Z,9.93
2019-06-26T16:19:14.732Z,10.00
2019-06-26T16:20:46.969Z,10.43
2019-06-26T16:22:31.733Z,10.57
2019-06-26T16:23:53.402Z,10.40
2019-06-26T16:25:25.625Z,14.37
2019-06-26T16:26:57.755Z,10.87
2019-06-26T16:28:29.952Z,11.13
2019-06-26T16:30:02.137Z,10.77
2019-06-26T16:31:34.199Z,12.63
2019-06-26T16:33:06.470Z,10.77
2019-06-26T16:34:38.557Z,10.83
2019-06-26T16:36:10.629Z,10.23
2019-06-26T16:37:42.851Z,13.63
2019-06-26T16:39:14.947Z,12.93
2019-06-26T16:40:47.162Z,12.63
2019-06-26T16:42:19.400Z,11.40
2019-06-26T16:43:51.546Z,11.17
2019-06-26T16:45:23.801Z,10.97
2019-06-26T16:46:59.144Z,10.67
2019-06-26T16:48:29.990Z,11.50
2019-06-26T16:50:02.286Z,11.50
2019-06-26T16:51:34.528Z,11.73
2019-06-26T16:53:06.935Z,11.40
2019-06-26T16:54:39.234Z,11.93
2019-06-26T16:56:11.385Z,14.43
2019-06-26T16:57:43.643Z,11.80
2019-06-26T16:59:15.903Z,12.33
2019-06-26T17:00:48.170Z,12.50
2019-06-26T17:02:20.399Z,14.37
2019-06-26T17:03:52.620Z,12.87
2019-06-26T17:05:24.758Z,12.70
2019-06-26T17:06:56.832Z,14.33
2019-06-26T17:08:28.910Z,13.53
2019-06-26T17:10:01.424Z,13.67
2019-06-26T17:11:33.689Z,13.43
2019-06-26T17:13:05.798Z,12.90
2019-06-26T17:14:37.948Z,14.80
2019-06-26T17:16:10.326Z,14.20
2019-06-26T17:17:42.587Z,12.20
2019-06-26T17:19:14.883Z,13.77
2019-06-26T17:20:46.997Z,16.83
2019-06-26T17:22:19.220Z,15.27
2019-06-26T17:23:51.304Z,13.77
2019-06-26T17:25:23.617Z,11.33
2019-06-26T17:26:59.302Z,11.83
2019-06-26T17:28:29.902Z,14.63
2019-06-26T17:30:02.232Z,15.97
2019-06-26T17:31:34.475Z,12.90
2019-06-26T17:33:06.596Z,12.77
2019-06-26T17:34:38.700Z,13.93
2019-06-26T17:36:10.845Z,16.40
2019-06-26T17:37:43.111Z,15.27
2019-06-26T17:39:15.258Z,13.10
2019-06-26T17:40:47.528Z,12.83
2019-06-26T17:42:19.796Z,12.83
2019-06-26T17:43:52.012Z,13.03
2019-06-26T17:45:24.171Z,15.70
2019-06-26T17:46:56.423Z,14.20
2019-06-26T17:48:28.587Z,16.17
2019-06-26T17:50:00.690Z,13.07
2019-06-26T17:51:32.818Z,14.57
2019-06-26T17:53:20.314Z,12.70
2019-06-26T17:54:39.099Z,16.03
2019-06-26T17:56:11.360Z,15.33
2019-06-26T17:57:43.470Z,13.13
2019-06-26T17:59:15.673Z,13.83
2019-06-26T18:00:47.840Z,11.73
2019-06-26T18:02:20.062Z,13.50
2019-06-26T18:03:52.177Z,15.47
2019-06-26T18:05:24.308Z,13.00
2019-06-26T18:06:56.380Z,15.10
2019-06-26T18:08:28.916Z,13.67
2019-06-26T18:10:01.112Z,13.00
2019-06-26T18:11:33.364Z,14.27
2019-06-26T18:13:05.519Z,13.40
2019-06-26T18:14:37.838Z,12.80
2019-06-26T18:16:09.921Z,13.03
2019-06-26T18:17:42.165Z,14.53
2019-06-26T18:19:14.426Z,14.33
2019-06-26T18:20:46.637Z,14.80
2019-06-26T18:22:18.871Z,20.27
2019-06-26T18:23:51.095Z,14.17
2019-06-26T18:25:23.461Z,14.47
2019-06-26T18:26:55.722Z,15.40
2019-06-26T18:28:27.935Z,18.10
2019-06-26T18:30:00.740Z,14.00
2019-06-26T18:31:33.024Z,14.80
2019-06-26T18:33:05.292Z,15.27
2019-06-26T18:34:37.363Z,15.17
2019-06-26T18:36:09.512Z,14.30
2019-06-26T18:37:41.613Z,14.97
2019-06-26T18:39:13.887Z,14.77
2019-06-26T18:40:46.180Z,16.90
2019-06-26T18:42:18.553Z,13.70
2019-06-26T18:43:50.843Z,15.03
2019-06-26T18:45:23.085Z,16.07
2019-06-26T18:46:55.450Z,14.57
2019-06-26T18:48:27.530Z,17.63
2019-06-26T18:49:59.623Z,14.47
2019-06-26T18:51:31.749Z,15.63
2019-06-26T18:53:04.088Z,14.97
2019-06-26T18:54:36.389Z,17.37
2019-06-26T18:56:08.537Z,14.97
2019-06-26T18:57:40.815Z,14.77
2019-06-26T18:59:12.944Z,15.73
2019-06-26T19:00:45.167Z,14.40
2019-06-26T19:02:17.279Z,14.63
2019-06-26T19:03:49.562Z,14.93
2019-06-26T19:05:21.845Z,15.87
2019-06-26T19:06:53.962Z,15.83
2019-06-26T19:08:26.221Z,14.90
2019-06-26T19:09:58.492Z,14.97
2019-06-26T19:11:30.666Z,14.70
2019-06-26T19:13:03.077Z,14.37
2019-06-26T19:14:35.182Z,14.30
2019-06-26T19:16:07.438Z,15.03
2019-06-26T19:17:42.458Z,14.13
2019-06-26T19:19:13.842Z,14.43
2019-06-26T19:20:46.214Z,14.63
2019-06-26T19:22:18.338Z,14.23
2019-06-26T19:23:50.635Z,14.90
2019-06-26T19:25:22.723Z,14.90
2019-06-26T19:26:54.965Z,14.17
2019-06-26T19:28:27.238Z,14.27
2019-06-26T19:29:59.484Z,14.00
2019-06-26T19:31:31.696Z,14.33
2019-06-26T19:33:04.035Z,13.87
2019-06-26T19:34:36.259Z,14.83
2019-06-26T19:36:08.518Z,17.57
2019-06-26T19:37:40.586Z,13.50
2019-06-26T19:39:12.708Z,13.03
2019-06-26T19:40:44.996Z,12.63
2019-06-26T19:42:17.061Z,13.37
2019-06-26T19:43:49.233Z,13.33
2019-06-26T19:45:22.146Z,13.10
2019-06-26T19:46:54.448Z,13.87
2019-06-26T19:48:26.697Z,12.53
2019-06-26T19:49:58.759Z,12.90
2019-06-26T19:51:30.906Z,12.93
2019-06-26T19:53:03.125Z,13.53
2019-06-26T19:54:35.244Z,12.33
2019-06-26T19:56:07.458Z,12.47
2019-06-26T19:57:39.592Z,13.27
2019-06-26T19:59:11.846Z,12.70
2019-06-26T20:00:44.112Z,12.63
2019-06-26T20:02:16.416Z,13.17
2019-06-26T20:03:48.537Z,11.50
2019-06-26T20:05:20.951Z,12.50
2019-06-26T20:06:53.165Z,12.47
2019-06-26T20:08:25.405Z,12.53
2019-06-26T20:09:57.528Z,12.93
2019-06-26T20:11:29.841Z,11.90